Terminal Aerodrome Forecast
Issued by NWS

Home | Current Version | Previous Version | Text Only | Print | Product List | Glossary On
Versions: 1 2 3 4 5 6 7 8 9 10 11 12
000
FTUS43 KICT 061126
TAFRSL
TAF
KRSL 061126Z 0612/0712 18012KT P6SM BKN250
     FM061400 19018G25KT P6SM BKN250
     FM061800 19023G30KT P6SM BKN250
     FM070100 19014KT P6SM SCT250
     FM070900 20012KT P6SM SKC WS020/22055KT=

USA.gov is the U.S. government's official web portal to all federal, state and local government web resources and services.